sensor_id;sensor_type;location;lat;lon;timestamp;temperature;humidity
24744;DHT22;12844;52.110;5.548;2023-02-18T00:02:17;18.70;56.80
24744;DHT22;12844;52.110;5.548;2023-02-18T00:04:43;18.70;56.70
24744;DHT22;12844;52.110;5.548;2023-02-18T00:07:08;18.70;56.70
24744;DHT22;12844;52.110;5.548;2023-02-18T00:09:34;18.70;56.80
24744;DHT22;12844;52.110;5.548;2023-02-18T00:11:59;18.70;56.80
24744;DHT22;12844;52.110;5.548;2023-02-18T00:14:25;18.70;56.80
24744;DHT22;12844;52.110;5.548;2023-02-18T00:16:50;18.70;56.70
24744;DHT22;12844;52.110;5.548;2023-02-18T00:19:18;18.70;56.70
24744;DHT22;12844;52.110;5.548;2023-02-18T00:21:43;18.60;56.70
24744;DHT22;12844;52.110;5.548;2023-02-18T00:24:11;18.60;56.70
24744;DHT22;12844;52.110;5.548;2023-02-18T00:26:39;18.60;56.70
24744;DHT22;12844;52.110;5.548;2023-02-18T00:29:05;18.60;56.70
24744;DHT22;12844;52.110;5.548;2023-02-18T00:31:33;18.60;56.70
24744;DHT22;12844;52.110;5.548;2023-02-18T00:34:00;18.60;56.60
24744;DHT22;12844;52.110;5.548;2023-02-18T00:36:26;18.60;56.50
24744;DHT22;12844;52.110;5.548;2023-02-18T00:38:55;18.60;56.60
24744;DHT22;12844;52.110;5.548;2023-02-18T00:41:22;18.60;56.50
24744;DHT22;12844;52.110;5.548;2023-02-18T00:43:47;18.60;56.50
24744;DHT22;12844;52.110;5.548;2023-02-18T00:46:13;18.50;56.40
24744;DHT22;12844;52.110;5.548;2023-02-18T00:48:39;18.50;56.30
24744;DHT22;12844;52.110;5.548;2023-02-18T00:51:06;18.60;56.40
24744;DHT22;12844;52.110;5.548;2023-02-18T00:53:31;18.50;56.30
24744;DHT22;12844;52.110;5.548;2023-02-18T00:55:57;18.50;56.40
24744;DHT22;12844;52.110;5.548;2023-02-18T00:58:23;18.50;56.30
24744;DHT22;12844;52.110;5.548;2023-02-18T01:00:49;18.50;56.30
24744;DHT22;12844;52.110;5.548;2023-02-18T01:03:14;18.50;56.30
24744;DHT22;12844;52.110;5.548;2023-02-18T01:05:41;18.50;56.30
24744;DHT22;12844;52.110;5.548;2023-02-18T01:08:08;18.50;56.30
24744;DHT22;12844;52.110;5.548;2023-02-18T01:10:36;18.50;56.30
24744;DHT22;12844;52.110;5.548;2023-02-18T01:13:04;18.50;56.30
24744;DHT22;12844;52.110;5.548;2023-02-18T01:15:29;18.50;56.30
24744;DHT22;12844;52.110;5.548;2023-02-18T01:17:55;18.50;56.30
24744;DHT22;12844;52.110;5.548;2023-02-18T01:20:21;18.50;56.20
24744;DHT22;12844;52.110;5.548;2023-02-18T01:22:46;18.40;56.20
24744;DHT22;12844;52.110;5.548;2023-02-18T01:25:12;18.40;56.20
24744;DHT22;12844;52.110;5.548;2023-02-18T01:27:38;18.40;56.20
24744;DHT22;12844;52.110;5.548;2023-02-18T01:30:05;18.40;56.20
24744;DHT22;12844;52.110;5.548;2023-02-18T01:32:31;18.40;56.20
24744;DHT22;12844;52.110;5.548;2023-02-18T01:34:59;18.40;56.20
24744;DHT22;12844;52.110;5.548;2023-02-18T01:37:25;18.40;56.20
24744;DHT22;12844;52.110;5.548;2023-02-18T01:39:51;18.40;56.10
24744;DHT22;12844;52.110;5.548;2023-02-18T01:42:25;18.40;56.00
24744;DHT22;12844;52.110;5.548;2023-02-18T01:44:51;18.30;56.00
24744;DHT22;12844;52.110;5.548;2023-02-18T01:47:17;18.30;55.90
24744;DHT22;12844;52.110;5.548;2023-02-18T01:49:49;18.30;55.90
24744;DHT22;12844;52.110;5.548;2023-02-18T01:52:23;18.30;55.90
24744;DHT22;12844;52.110;5.548;2023-02-18T01:54:54;18.30;55.90
24744;DHT22;12844;52.110;5.548;2023-02-18T01:57:24;18.40;55.90
24744;DHT22;12844;52.110;5.548;2023-02-18T02:00:03;18.30;55.90
24744;DHT22;12844;52.110;5.548;2023-02-18T02:02:31;18.30;55.90
24744;DHT22;12844;52.110;5.548;2023-02-18T02:04:58;18.40;55.90
24744;DHT22;12844;52.110;5.548;2023-02-18T02:07:25;18.30;55.90
24744;DHT22;12844;52.110;5.548;2023-02-18T02:09:53;18.30;56.50
24744;DHT22;12844;52.110;5.548;2023-02-18T02:34:02;18.20;55.70
24744;DHT22;12844;52.110;5.548;2023-02-18T02:44:56;18.20;55.80
24744;DHT22;12844;52.110;5.548;2023-02-18T02:47:43;18.20;55.70
24744;DHT22;12844;52.110;5.548;2023-02-18T02:50:20;18.20;55.70
24744;DHT22;12844;52.110;5.548;2023-02-18T02:52:53;18.20;55.60
24744;DHT22;12844;52.110;5.548;2023-02-18T02:55:21;18.20;55.70
24744;DHT22;12844;52.110;5.548;2023-02-18T02:57:52;18.20;55.70
24744;DHT22;12844;52.110;5.548;2023-02-18T03:03:44;18.20;55.50
24744;DHT22;12844;52.110;5.548;2023-02-18T03:12:07;18.20;55.50
24744;DHT22;12844;52.110;5.548;2023-02-18T03:17:30;18.10;55.40
24744;DHT22;12844;52.110;5.548;2023-02-18T03:20:24;18.10;55.50
24744;DHT22;12844;52.110;5.548;2023-02-18T03:22:51;18.10;55.40
24744;DHT22;12844;52.110;5.548;2023-02-18T03:25:18;18.10;55.50
24744;DHT22;12844;52.110;5.548;2023-02-18T03:27:51;18.10;55.40
24744;DHT22;12844;52.110;5.548;2023-02-18T03:30:23;18.10;55.40
24744;DHT22;12844;52.110;5.548;2023-02-18T03:32:54;18.10;55.40
24744;DHT22;12844;52.110;5.548;2023-02-18T03:35:20;18.10;56.10
24744;DHT22;12844;52.110;5.548;2023-02-18T03:37:53;18.10;56.10
24744;DHT22;12844;52.110;5.548;2023-02-18T03:40:26;18.10;55.40
24744;DHT22;12844;52.110;5.548;2023-02-18T03:42:51;18.10;55.40
24744;DHT22;12844;52.110;5.548;2023-02-18T03:45:17;18.10;55.40
24744;DHT22;12844;52.110;5.548;2023-02-18T03:47:42;18.10;55.40
24744;DHT22;12844;52.110;5.548;2023-02-18T03:50:08;18.10;55.40
24744;DHT22;12844;52.110;5.548;2023-02-18T03:52:34;18.10;55.40
24744;DHT22;12844;52.110;5.548;2023-02-18T03:55:04;18.10;55.40
24744;DHT22;12844;52.110;5.548;2023-02-18T03:57:30;18.10;55.40
24744;DHT22;12844;52.110;5.548;2023-02-18T03:59:55;18.10;55.40
24744;DHT22;12844;52.110;5.548;2023-02-18T04:02:21;18.10;55.40
24744;DHT22;12844;52.110;5.548;2023-02-18T04:04:46;18.10;55.40
24744;DHT22;12844;52.110;5.548;2023-02-18T04:07:12;18.10;55.40
24744;DHT22;12844;52.110;5.548;2023-02-18T04:09:37;18.10;55.40
24744;DHT22;12844;52.110;5.548;2023-02-18T04:12:03;18.10;55.40
24744;DHT22;12844;52.110;5.548;2023-02-18T04:14:28;18.10;55.40
24744;DHT22;12844;52.110;5.548;2023-02-18T04:16:54;18.10;55.40
24744;DHT22;12844;52.110;5.548;2023-02-18T04:19:20;18.10;55.40
24744;DHT22;12844;52.110;5.548;2023-02-18T04:21:45;18.10;55.30
24744;DHT22;12844;52.110;5.548;2023-02-18T04:24:11;18.10;55.30
24744;DHT22;12844;52.110;5.548;2023-02-18T04:26:36;18.10;55.30
24744;DHT22;12844;52.110;5.548;2023-02-18T04:29:02;18.10;55.30
24744;DHT22;12844;52.110;5.548;2023-02-18T04:31:27;18.10;55.30
24744;DHT22;12844;52.110;5.548;2023-02-18T04:33:53;18.10;55.30
24744;DHT22;12844;52.110;5.548;2023-02-18T04:36:19;18.00;55.20
24744;DHT22;12844;52.110;5.548;2023-02-18T04:38:44;18.00;55.20
24744;DHT22;12844;52.110;5.548;2023-02-18T04:41:10;18.00;55.20
24744;DHT22;12844;52.110;5.548;2023-02-18T04:43:37;18.00;55.30
24744;DHT22;12844;52.110;5.548;2023-02-18T04:46:03;18.00;55.20
24744;DHT22;12844;52.110;5.548;2023-02-18T04:48:28;18.00;55.20
24744;DHT22;12844;52.110;5.548;2023-02-18T04:50:54;18.00;55.20
24744;DHT22;12844;52.110;5.548;2023-02-18T04:53:20;18.00;55.30
24744;DHT22;12844;52.110;5.548;2023-02-18T04:55:52;18.00;55.30
24744;DHT22;12844;52.110;5.548;2023-02-18T04:58:19;18.00;55.20
24744;DHT22;12844;52.110;5.548;2023-02-18T05:00:45;18.00;55.20
24744;DHT22;12844;52.110;5.548;2023-02-18T05:03:11;18.00;55.10
24744;DHT22;12844;52.110;5.548;2023-02-18T05:05:36;18.00;55.10
24744;DHT22;12844;52.110;5.548;2023-02-18T05:08:03;18.00;55.30
24744;DHT22;12844;52.110;5.548;2023-02-18T05:10:29;18.00;55.30
24744;DHT22;12844;52.110;5.548;2023-02-18T05:12:54;18.00;55.30
24744;DHT22;12844;52.110;5.548;2023-02-18T05:15:20;18.00;55.20
24744;DHT22;12844;52.110;5.548;2023-02-18T05:17:45;18.00;55.30
24744;DHT22;12844;52.110;5.548;2023-02-18T05:20:11;18.00;55.40
24744;DHT22;12844;52.110;5.548;2023-02-18T05:22:37;18.00;55.40
24744;DHT22;12844;52.110;5.548;2023-02-18T05:25:03;18.00;55.40
24744;DHT22;12844;52.110;5.548;2023-02-18T05:27:29;18.00;55.40
24744;DHT22;12844;52.110;5.548;2023-02-18T05:29:55;18.00;55.40
24744;DHT22;12844;52.110;5.548;2023-02-18T05:32:21;18.00;55.30
24744;DHT22;12844;52.110;5.548;2023-02-18T05:34:46;18.00;55.40
24744;DHT22;12844;52.110;5.548;2023-02-18T05:37:12;18.00;55.40
24744;DHT22;12844;52.110;5.548;2023-02-18T05:39:39;18.00;55.30
24744;DHT22;12844;52.110;5.548;2023-02-18T05:42:05;18.00;55.20
24744;DHT22;12844;52.110;5.548;2023-02-18T05:44:30;18.00;55.20
24744;DHT22;12844;52.110;5.548;2023-02-18T05:47:07;18.00;55.10
24744;DHT22;12844;52.110;5.548;2023-02-18T05:49:34;18.00;55.20
24744;DHT22;12844;52.110;5.548;2023-02-18T05:51:59;18.00;55.10
24744;DHT22;12844;52.110;5.548;2023-02-18T05:54:26;18.00;55.10
24744;DHT22;12844;52.110;5.548;2023-02-18T05:56:52;18.00;55.10
24744;DHT22;12844;52.110;5.548;2023-02-18T05:59:18;18.00;55.10
24744;DHT22;12844;52.110;5.548;2023-02-18T06:01:45;18.00;55.10
24744;DHT22;12844;52.110;5.548;2023-02-18T06:04:10;18.00;55.10
24744;DHT22;12844;52.110;5.548;2023-02-18T06:06:36;18.00;55.10
24744;DHT22;12844;52.110;5.548;2023-02-18T06:09:02;18.00;55.10
24744;DHT22;12844;52.110;5.548;2023-02-18T06:11:28;18.00;55.10
24744;DHT22;12844;52.110;5.548;2023-02-18T06:13:53;18.00;55.10
24744;DHT22;12844;52.110;5.548;2023-02-18T06:16:19;18.00;55.10
24744;DHT22;12844;52.110;5.548;2023-02-18T06:18:44;18.00;55.10
24744;DHT22;12844;52.110;5.548;2023-02-18T06:21:10;18.00;55.20
24744;DHT22;12844;52.110;5.548;2023-02-18T06:23:35;18.00;55.10
24744;DHT22;12844;52.110;5.548;2023-02-18T06:26:01;18.00;55.10
24744;DHT22;12844;52.110;5.548;2023-02-18T06:28:27;17.90;55.00
24744;DHT22;12844;52.110;5.548;2023-02-18T06:30:52;18.00;55.00
24744;DHT22;12844;52.110;5.548;2023-02-18T06:33:18;17.90;55.00
24744;DHT22;12844;52.110;5.548;2023-02-18T06:35:53;17.90;55.00
24744;DHT22;12844;52.110;5.548;2023-02-18T06:38:18;18.00;55.00
24744;DHT22;12844;52.110;5.548;2023-02-18T06:40:46;17.90;54.90
24744;DHT22;12844;52.110;5.548;2023-02-18T06:43:12;17.90;55.00
24744;DHT22;12844;52.110;5.548;2023-02-18T06:45:38;17.90;55.00
24744;DHT22;12844;52.110;5.548;2023-02-18T06:48:04;18.00;55.10
24744;DHT22;12844;52.110;5.548;2023-02-18T06:50:29;17.90;55.00
24744;DHT22;12844;52.110;5.548;2023-02-18T06:52:55;17.90;55.00
24744;DHT22;12844;52.110;5.548;2023-02-18T06:55:21;17.90;55.00
24744;DHT22;12844;52.110;5.548;2023-02-18T06:57:46;17.90;55.00
24744;DHT22;12844;52.110;5.548;2023-02-18T07:00:12;17.90;54.90
24744;DHT22;12844;52.110;5.548;2023-02-18T07:02:37;17.90;55.00
24744;DHT22;12844;52.110;5.548;2023-02-18T07:05:03;17.90;55.00
24744;DHT22;12844;52.110;5.548;2023-02-18T07:07:29;17.90;55.00
24744;DHT22;12844;52.110;5.548;2023-02-18T07:09:55;17.90;54.90
24744;DHT22;12844;52.110;5.548;2023-02-18T07:12:20;17.90;55.00
24744;DHT22;12844;52.110;5.548;2023-02-18T07:14:46;17.90;55.00
24744;DHT22;12844;52.110;5.548;2023-02-18T07:17:12;17.90;54.90
24744;DHT22;12844;52.110;5.548;2023-02-18T07:19:38;17.90;54.80
24744;DHT22;12844;52.110;5.548;2023-02-18T07:22:03;17.90;54.90
24744;DHT22;12844;52.110;5.548;2023-02-18T07:24:29;17.90;54.90
24744;DHT22;12844;52.110;5.548;2023-02-18T07:26:54;17.90;54.90
24744;DHT22;12844;52.110;5.548;2023-02-18T07:29:20;17.90;55.10
24744;DHT22;12844;52.110;5.548;2023-02-18T07:31:45;17.90;55.30
24744;DHT22;12844;52.110;5.548;2023-02-18T07:34:11;18.00;55.70
24744;DHT22;12844;52.110;5.548;2023-02-18T07:36:36;18.20;55.70
24744;DHT22;12844;52.110;5.548;2023-02-18T07:39:03;18.40;55.60
24744;DHT22;12844;52.110;5.548;2023-02-18T07:41:28;18.60;55.60
24744;DHT22;12844;52.110;5.548;2023-02-18T07:43:54;18.80;55.30
24744;DHT22;12844;52.110;5.548;2023-02-18T07:46:19;18.90;55.20
24744;DHT22;12844;52.110;5.548;2023-02-18T07:48:45;19.10;55.00
24744;DHT22;12844;52.110;5.548;2023-02-18T07:51:11;19.20;54.80
24744;DHT22;12844;52.110;5.548;2023-02-18T07:53:38;19.30;54.60
24744;DHT22;12844;52.110;5.548;2023-02-18T07:56:04;19.40;54.50
24744;DHT22;12844;52.110;5.548;2023-02-18T07:58:32;19.50;54.30
24744;DHT22;12844;52.110;5.548;2023-02-18T08:00:59;19.60;54.30
24744;DHT22;12844;52.110;5.548;2023-02-18T08:03:30;19.60;54.20
24744;DHT22;12844;52.110;5.548;2023-02-18T08:05:57;19.70;54.00
24744;DHT22;12844;52.110;5.548;2023-02-18T08:08:26;19.70;54.00
24744;DHT22;12844;52.110;5.548;2023-02-18T08:10:55;19.60;53.90
24744;DHT22;12844;52.110;5.548;2023-02-18T08:13:21;19.60;54.00
24744;DHT22;12844;52.110;5.548;2023-02-18T08:15:46;19.60;54.00
24744;DHT22;12844;52.110;5.548;2023-02-18T08:18:18;19.60;54.00
24744;DHT22;12844;52.110;5.548;2023-02-18T08:20:45;19.60;54.00
24744;DHT22;12844;52.110;5.548;2023-02-18T08:23:12;19.50;54.00
24744;DHT22;12844;52.110;5.548;2023-02-18T08:25:38;19.50;54.20
24744;DHT22;12844;52.110;5.548;2023-02-18T08:28:04;19.50;54.30
24744;DHT22;12844;52.110;5.548;2023-02-18T08:30:30;19.50;54.30
24744;DHT22;12844;52.110;5.548;2023-02-18T08:32:56;19.40;54.30
24744;DHT22;12844;52.110;5.548;2023-02-18T08:35:22;19.40;54.30
24744;DHT22;12844;52.110;5.548;2023-02-18T08:37:47;19.40;54.40
24744;DHT22;12844;52.110;5.548;2023-02-18T08:40:13;19.30;54.40
24744;DHT22;12844;52.110;5.548;2023-02-18T08:42:39;19.30;54.50
24744;DHT22;12844;52.110;5.548;2023-02-18T08:45:05;19.30;54.50
24744;DHT22;12844;52.110;5.548;2023-02-18T08:47:31;19.30;54.60
24744;DHT22;12844;52.110;5.548;2023-02-18T08:49:57;19.20;54.60
24744;DHT22;12844;52.110;5.548;2023-02-18T08:52:22;19.20;54.50
24744;DHT22;12844;52.110;5.548;2023-02-18T08:54:48;19.20;54.60
24744;DHT22;12844;52.110;5.548;2023-02-18T08:57:13;19.20;54.50
24744;DHT22;12844;52.110;5.548;2023-02-18T08:59:39;19.20;54.70
24744;DHT22;12844;52.110;5.548;2023-02-18T09:02:05;19.10;54.60
24744;DHT22;12844;52.110;5.548;2023-02-18T09:04:30;19.10;54.60
24744;DHT22;12844;52.110;5.548;2023-02-18T09:06:56;19.00;54.50
24744;DHT22;12844;52.110;5.548;2023-02-18T09:09:22;19.00;54.40
24744;DHT22;12844;52.110;5.548;2023-02-18T09:11:48;19.00;54.40
24744;DHT22;12844;52.110;5.548;2023-02-18T09:14:13;19.00;54.40
24744;DHT22;12844;52.110;5.548;2023-02-18T09:16:40;19.00;54.50
24744;DHT22;12844;52.110;5.548;2023-02-18T09:19:06;18.90;54.50
24744;DHT22;12844;52.110;5.548;2023-02-18T09:21:32;18.90;54.50
24744;DHT22;12844;52.110;5.548;2023-02-18T09:23:58;18.90;54.50
24744;DHT22;12844;52.110;5.548;2023-02-18T09:26:25;18.80;54.50
24744;DHT22;12844;52.110;5.548;2023-02-18T09:28:52;18.80;54.50
24744;DHT22;12844;52.110;5.548;2023-02-18T09:31:21;18.80;54.50
24744;DHT22;12844;52.110;5.548;2023-02-18T09:33:53;18.80;54.50
24744;DHT22;12844;52.110;5.548;2023-02-18T09:36:18;18.80;54.50
24744;DHT22;12844;52.110;5.548;2023-02-18T09:38:45;18.70;54.50
24744;DHT22;12844;52.110;5.548;2023-02-18T09:41:31;18.70;54.50
24744;DHT22;12844;52.110;5.548;2023-02-18T09:44:06;18.80;54.50
24744;DHT22;12844;52.110;5.548;2023-02-18T09:49:28;18.70;54.50
24744;DHT22;12844;52.110;5.548;2023-02-18T09:51:56;18.70;54.70
24744;DHT22;12844;52.110;5.548;2023-02-18T09:54:26;18.60;54.60
24744;DHT22;12844;52.110;5.548;2023-02-18T09:56:52;18.70;54.70
24744;DHT22;12844;52.110;5.548;2023-02-18T09:59:19;18.60;54.60
24744;DHT22;12844;52.110;5.548;2023-02-18T10:01:48;18.60;54.60
24744;DHT22;12844;52.110;5.548;2023-02-18T10:06:44;18.60;54.70
24744;DHT22;12844;52.110;5.548;2023-02-18T10:09:36;18.60;54.70
24744;DHT22;12844;52.110;5.548;2023-02-18T10:12:14;18.60;54.60
24744;DHT22;12844;52.110;5.548;2023-02-18T10:14:48;18.60;54.80
24744;DHT22;12844;52.110;5.548;2023-02-18T10:17:15;18.50;54.70
24744;DHT22;12844;52.110;5.548;2023-02-18T10:19:43;18.50;54.70
24744;DHT22;12844;52.110;5.548;2023-02-18T10:22:12;18.50;54.70
24744;DHT22;12844;52.110;5.548;2023-02-18T10:24:44;18.50;54.70
24744;DHT22;12844;52.110;5.548;2023-02-18T10:27:12;18.50;54.80
24744;DHT22;12844;52.110;5.548;2023-02-18T10:29:40;18.40;54.70
24744;DHT22;12844;52.110;5.548;2023-02-18T10:32:31;18.40;54.90
24744;DHT22;12844;52.110;5.548;2023-02-18T10:35:11;18.50;54.90
24744;DHT22;12844;52.110;5.548;2023-02-18T10:37:52;18.40;54.90
24744;DHT22;12844;52.110;5.548;2023-02-18T10:45:59;18.40;54.90
24744;DHT22;12844;52.110;5.548;2023-02-18T10:50:59;18.40;55.00
24744;DHT22;12844;52.110;5.548;2023-02-18T10:53:32;18.40;55.00
24744;DHT22;12844;52.110;5.548;2023-02-18T10:55:59;18.40;55.00
24744;DHT22;12844;52.110;5.548;2023-02-18T10:58:48;18.40;55.00
24744;DHT22;12844;52.110;5.548;2023-02-18T11:01:15;18.40;55.00
24744;DHT22;12844;52.110;5.548;2023-02-18T11:04:04;18.40;55.00
24744;DHT22;12844;52.110;5.548;2023-02-18T11:06:37;18.40;55.00
24744;DHT22;12844;52.110;5.548;2023-02-18T11:09:03;18.40;55.10
24744;DHT22;12844;52.110;5.548;2023-02-18T11:11:33;18.30;55.00
24744;DHT22;12844;52.110;5.548;2023-02-18T11:14:02;18.40;55.10
24744;DHT22;12844;52.110;5.548;2023-02-18T11:16:42;18.30;55.10
24744;DHT22;12844;52.110;5.548;2023-02-18T11:19:33;18.40;55.00
24744;DHT22;12844;52.110;5.548;2023-02-18T11:22:32;18.30;55.00
24744;DHT22;12844;52.110;5.548;2023-02-18T11:25:01;18.30;55.00
24744;DHT22;12844;52.110;5.548;2023-02-18T11:27:31;18.30;55.10
24744;DHT22;12844;52.110;5.548;2023-02-18T11:30:05;18.30;55.10
24744;DHT22;12844;52.110;5.548;2023-02-18T11:32:34;18.30;55.10
24744;DHT22;12844;52.110;5.548;2023-02-18T11:35:02;18.30;55.00
24744;DHT22;12844;52.110;5.548;2023-02-18T11:37:31;18.30;55.00
24744;DHT22;12844;52.110;5.548;2023-02-18T11:39:57;18.30;55.00
24744;DHT22;12844;52.110;5.548;2023-02-18T11:42:24;18.30;55.00
24744;DHT22;12844;52.110;5.548;2023-02-18T11:44:56;18.30;55.00
24744;DHT22;12844;52.110;5.548;2023-02-18T11:47:30;18.30;55.00
24744;DHT22;12844;52.110;5.548;2023-02-18T11:52:37;18.30;55.00
24744;DHT22;12844;52.110;5.548;2023-02-18T11:55:19;18.30;55.10
24744;DHT22;12844;52.110;5.548;2023-02-18T11:57:49;18.30;55.10
24744;DHT22;12844;52.110;5.548;2023-02-18T12:02:50;18.20;55.10
24744;DHT22;12844;52.110;5.548;2023-02-18T12:05:21;18.20;55.10
24744;DHT22;12844;52.110;5.548;2023-02-18T12:10:31;18.30;55.10
24744;DHT22;12844;52.110;5.548;2023-02-18T12:26:35;18.20;55.00
24744;DHT22;12844;52.110;5.548;2023-02-18T12:34:59;18.20;55.10
24744;DHT22;12844;52.110;5.548;2023-02-18T12:40:31;18.10;55.10
24744;DHT22;12844;52.110;5.548;2023-02-18T12:43:08;18.20;55.10
24744;DHT22;12844;52.110;5.548;2023-02-18T12:45:44;18.10;55.10
24744;DHT22;12844;52.110;5.548;2023-02-18T12:56:46;18.20;55.10
24744;DHT22;12844;52.110;5.548;2023-02-18T12:59:19;18.10;55.10
24744;DHT22;12844;52.110;5.548;2023-02-18T13:02:16;18.10;55.10
24744;DHT22;12844;52.110;5.548;2023-02-18T13:07:35;18.10;55.10
24744;DHT22;12844;52.110;5.548;2023-02-18T13:13:21;18.10;55.20
24744;DHT22;12844;52.110;5.548;2023-02-18T13:16:09;18.10;55.10
24744;DHT22;12844;52.110;5.548;2023-02-18T13:18:43;18.10;55.20
24744;DHT22;12844;52.110;5.548;2023-02-18T13:21:14;18.10;55.20
24744;DHT22;12844;52.110;5.548;2023-02-18T13:23:55;18.10;55.20
24744;DHT22;12844;52.110;5.548;2023-02-18T13:26:23;18.10;55.10
24744;DHT22;12844;52.110;5.548;2023-02-18T13:37:28;18.10;55.10
24744;DHT22;12844;52.110;5.548;2023-02-18T13:39:58;18.10;55.10
24744;DHT22;12844;52.110;5.548;2023-02-18T13:50:26;18.10;55.10
24744;DHT22;12844;52.110;5.548;2023-02-18T13:56:01;18.10;55.10
24744;DHT22;12844;52.110;5.548;2023-02-18T13:58:41;18.10;55.20
24744;DHT22;12844;52.110;5.548;2023-02-18T14:03:49;18.00;55.10
24744;DHT22;12844;52.110;5.548;2023-02-18T14:08:45;18.00;55.10
24744;DHT22;12844;52.110;5.548;2023-02-18T14:13:39;18.10;55.10
24744;DHT22;12844;52.110;5.548;2023-02-18T14:16:06;18.00;55.10
24744;DHT22;12844;52.110;5.548;2023-02-18T14:18:33;18.00;55.10
24744;DHT22;12844;52.110;5.548;2023-02-18T14:21:21;18.10;55.10
24744;DHT22;12844;52.110;5.548;2023-02-18T14:24:01;18.00;55.10
24744;DHT22;12844;52.110;5.548;2023-02-18T14:26:39;18.10;55.10
24744;DHT22;12844;52.110;5.548;2023-02-18T14:29:19;18.00;55.10
24744;DHT22;12844;52.110;5.548;2023-02-18T14:31:52;18.00;55.10
24744;DHT22;12844;52.110;5.548;2023-02-18T14:37:31;18.00;55.10
24744;DHT22;12844;52.110;5.548;2023-02-18T14:42:44;18.00;55.30
24744;DHT22;12844;52.110;5.548;2023-02-18T14:45:31;18.00;55.20
24744;DHT22;12844;52.110;5.548;2023-02-18T14:50:34;18.00;55.30
24744;DHT22;12844;52.110;5.548;2023-02-18T14:53:11;18.00;55.20
24744;DHT22;12844;52.110;5.548;2023-02-18T14:55:47;18.00;55.30
24744;DHT22;12844;52.110;5.548;2023-02-18T14:58:37;18.00;55.30
24744;DHT22;12844;52.110;5.548;2023-02-18T15:01:23;18.00;55.20
24744;DHT22;12844;52.110;5.548;2023-02-18T15:03:52;18.00;55.20
24744;DHT22;12844;52.110;5.548;2023-02-18T15:06:28;18.00;55.30
24744;DHT22;12844;52.110;5.548;2023-02-18T15:08:55;18.00;55.30
24744;DHT22;12844;52.110;5.548;2023-02-18T15:11:33;18.00;55.20
24744;DHT22;12844;52.110;5.548;2023-02-18T15:14:00;18.00;55.20
24744;DHT22;12844;52.110;5.548;2023-02-18T15:16:33;18.00;55.30
24744;DHT22;12844;52.110;5.548;2023-02-18T15:19:02;18.00;55.20
24744;DHT22;12844;52.110;5.548;2023-02-18T15:21:36;18.00;55.20
24744;DHT22;12844;52.110;5.548;2023-02-18T15:24:29;18.00;55.20
24744;DHT22;12844;52.110;5.548;2023-02-18T15:26:59;18.00;55.10
24744;DHT22;12844;52.110;5.548;2023-02-18T15:29:28;18.00;55.20
24744;DHT22;12844;52.110;5.548;2023-02-18T15:31:55;18.00;55.20
24744;DHT22;12844;52.110;5.548;2023-02-18T15:34:29;18.00;55.20
24744;DHT22;12844;52.110;5.548;2023-02-18T15:36:57;18.00;55.20
24744;DHT22;12844;52.110;5.548;2023-02-18T15:39:30;18.00;55.10
24744;DHT22;12844;52.110;5.548;2023-02-18T15:42:02;18.00;55.10
24744;DHT22;12844;52.110;5.548;2023-02-18T15:44:33;18.00;55.10
24744;DHT22;12844;52.110;5.548;2023-02-18T15:47:01;18.00;55.20
24744;DHT22;12844;52.110;5.548;2023-02-18T15:49:28;18.00;55.10
24744;DHT22;12844;52.110;5.548;2023-02-18T15:51:57;18.00;55.20
24744;DHT22;12844;52.110;5.548;2023-02-18T15:54:24;18.00;55.10
24744;DHT22;12844;52.110;5.548;2023-02-18T15:56:52;18.00;55.10
24744;DHT22;12844;52.110;5.548;2023-02-18T15:59:32;17.90;55.10
24744;DHT22;12844;52.110;5.548;2023-02-18T16:04:36;17.90;55.10
24744;DHT22;12844;52.110;5.548;2023-02-18T16:07:17;17.90;55.10
24744;DHT22;12844;52.110;5.548;2023-02-18T16:09:43;17.90;55.10
24744;DHT22;12844;52.110;5.548;2023-02-18T16:12:26;17.90;55.10
24744;DHT22;12844;52.110;5.548;2023-02-18T16:14:54;17.90;55.10
24744;DHT22;12844;52.110;5.548;2023-02-18T16:17:22;17.90;55.10
24744;DHT22;12844;52.110;5.548;2023-02-18T16:19:55;17.90;55.10
24744;DHT22;12844;52.110;5.548;2023-02-18T16:22:25;17.90;55.10
24744;DHT22;12844;52.110;5.548;2023-02-18T16:25:00;17.90;55.10
24744;DHT22;12844;52.110;5.548;2023-02-18T16:27:32;17.90;55.10
24744;DHT22;12844;52.110;5.548;2023-02-18T16:30:15;17.90;55.10
24744;DHT22;12844;52.110;5.548;2023-02-18T16:32:42;17.90;55.00
24744;DHT22;12844;52.110;5.548;2023-02-18T16:35:08;17.90;55.10
24744;DHT22;12844;52.110;5.548;2023-02-18T16:37:34;17.90;55.10
24744;DHT22;12844;52.110;5.548;2023-02-18T16:42:46;17.90;55.10
24744;DHT22;12844;52.110;5.548;2023-02-18T16:45:11;17.90;55.10
24744;DHT22;12844;52.110;5.548;2023-02-18T16:47:38;17.90;55.10
24744;DHT22;12844;52.110;5.548;2023-02-18T16:50:04;17.90;55.10
24744;DHT22;12844;52.110;5.548;2023-02-18T16:52:31;17.90;55.10
24744;DHT22;12844;52.110;5.548;2023-02-18T16:54:56;17.90;55.10
24744;DHT22;12844;52.110;5.548;2023-02-18T16:57:22;17.90;55.10
24744;DHT22;12844;52.110;5.548;2023-02-18T16:59:48;17.90;55.10
24744;DHT22;12844;52.110;5.548;2023-02-18T17:02:19;17.80;55.10
24744;DHT22;12844;52.110;5.548;2023-02-18T17:04:45;17.90;55.10
24744;DHT22;12844;52.110;5.548;2023-02-18T17:07:11;17.90;55.10
24744;DHT22;12844;52.110;5.548;2023-02-18T17:09:36;17.90;55.10
24744;DHT22;12844;52.110;5.548;2023-02-18T17:12:02;17.90;55.10
24744;DHT22;12844;52.110;5.548;2023-02-18T17:14:28;17.90;55.10
24744;DHT22;12844;52.110;5.548;2023-02-18T17:16:54;17.80;55.00
24744;DHT22;12844;52.110;5.548;2023-02-18T17:19:20;17.80;55.10
24744;DHT22;12844;52.110;5.548;2023-02-18T17:21:46;17.80;55.00
24744;DHT22;12844;52.110;5.548;2023-02-18T17:24:12;17.80;55.00
24744;DHT22;12844;52.110;5.548;2023-02-18T17:26:38;17.80;55.00
24744;DHT22;12844;52.110;5.548;2023-02-18T17:29:04;17.80;55.00
24744;DHT22;12844;52.110;5.548;2023-02-18T17:31:34;17.80;55.00
24744;DHT22;12844;52.110;5.548;2023-02-18T17:34:03;17.80;55.00
24744;DHT22;12844;52.110;5.548;2023-02-18T17:36:29;17.80;55.00
24744;DHT22;12844;52.110;5.548;2023-02-18T17:38:56;17.80;55.00
24744;DHT22;12844;52.110;5.548;2023-02-18T17:41:21;17.80;55.00
24744;DHT22;12844;52.110;5.548;2023-02-18T17:43:47;17.80;55.00
24744;DHT22;12844;52.110;5.548;2023-02-18T17:46:15;17.80;55.00
24744;DHT22;12844;52.110;5.548;2023-02-18T17:48:42;17.80;55.00
24744;DHT22;12844;52.110;5.548;2023-02-18T17:51:24;17.80;55.00
24744;DHT22;12844;52.110;5.548;2023-02-18T17:53:50;17.80;55.00
24744;DHT22;12844;52.110;5.548;2023-02-18T17:56:16;17.80;55.00
24744;DHT22;12844;52.110;5.548;2023-02-18T17:58:41;17.80;55.00
24744;DHT22;12844;52.110;5.548;2023-02-18T18:01:08;17.80;55.00
24744;DHT22;12844;52.110;5.548;2023-02-18T18:03:34;17.80;55.00